createdAt,value
2023-04-21T00:02:03.542Z,66.80
2023-04-21T00:05:10.726Z,67.00
2023-04-21T00:08:14.552Z,67.00
2023-04-21T00:11:17.775Z,66.90
2023-04-21T00:14:20.937Z,67.10
2023-04-21T00:17:24.060Z,67.10
2023-04-21T00:20:28.625Z,67.30
2023-04-21T00:23:31.887Z,67.50
2023-04-21T00:26:34.978Z,67.70
2023-04-21T00:29:38.923Z,67.80
2023-04-21T00:32:42.175Z,67.80
2023-04-21T00:35:46.715Z,68.00
2023-04-21T00:38:49.916Z,68.20
2023-04-21T00:41:55.815Z,68.40
2023-04-21T00:44:58.924Z,68.40
2023-04-21T00:48:02.170Z,68.40
2023-04-21T00:51:07.025Z,67.70
2023-04-21T00:54:12.055Z,67.60
2023-04-21T00:57:15.353Z,67.70
2023-04-21T01:00:18.989Z,67.70
2023-04-21T01:03:22.352Z,67.40
2023-04-21T01:06:27.239Z,67.30
2023-04-21T01:09:30.328Z,67.20
2023-04-21T01:12:33.505Z,67.30
2023-04-21T01:15:36.725Z,67.30
2023-04-21T01:18:39.734Z,67.10
2023-04-21T01:21:44.262Z,66.90
2023-04-21T01:24:49.412Z,66.40
2023-04-21T01:27:54.039Z,66.40
2023-04-21T01:30:57.095Z,66.40
2023-04-21T01:34:04.924Z,66.50
2023-04-21T01:37:11.314Z,66.40
2023-04-21T01:40:14.995Z,66.10
2023-04-21T01:43:22.116Z,66.00
2023-04-21T01:46:25.459Z,66.00
2023-04-21T01:49:28.494Z,66.00
2023-04-21T01:52:32.947Z,65.80
2023-04-21T01:55:36.153Z,65.70
2023-04-21T01:58:39.336Z,65.60
2023-04-21T02:01:43.242Z,65.30
2023-04-21T02:04:46.349Z,65.40
2023-04-21T02:07:50.851Z,65.60
2023-04-21T02:10:54.062Z,65.40
2023-04-21T02:13:57.877Z,65.40
2023-04-21T02:17:03.620Z,65.30
2023-04-21T02:20:08.156Z,65.40
2023-04-21T02:23:12.908Z,65.40
2023-04-21T02:26:16.037Z,65.40
2023-04-21T02:29:19.387Z,65.10
2023-04-21T02:32:25.940Z,65.10
2023-04-21T02:35:29.472Z,65.20
2023-04-21T02:38:33.968Z,65.00
2023-04-21T02:41:36.968Z,65.10
2023-04-21T02:44:40.078Z,65.00
2023-04-21T02:47:43.181Z,65.00
2023-04-21T02:50:46.264Z,65.00
2023-04-21T02:53:50.830Z,65.00
2023-04-21T02:56:54.009Z,64.80
2023-04-21T02:59:57.243Z,64.50
2023-04-21T03:03:00.472Z,64.80
2023-04-21T03:06:05.822Z,64.70
2023-04-21T03:09:10.473Z,64.90
2023-04-21T03:12:13.646Z,64.60
2023-04-21T03:15:17.764Z,64.60
2023-04-21T03:18:20.761Z,64.70
2023-04-21T03:21:23.857Z,64.70
2023-04-21T03:24:28.344Z,64.80
2023-04-21T03:27:31.615Z,64.90
2023-04-21T03:30:34.973Z,64.80
2023-04-21T03:33:37.994Z,65.10
2023-04-21T03:36:41.064Z,65.10
2023-04-21T03:39:45.586Z,65.10
2023-04-21T03:42:49.776Z,65.40
2023-04-21T03:45:53.336Z,65.20
2023-04-21T03:48:56.378Z,65.40
2023-04-21T03:51:59.432Z,65.40
2023-04-21T03:55:05.057Z,65.50
2023-04-21T03:58:08.624Z,65.60
2023-04-21T04:01:11.930Z,65.70
2023-04-21T04:04:15.445Z,65.50
2023-04-21T04:07:18.704Z,65.40
2023-04-21T04:10:23.182Z,65.50
2023-04-21T04:13:26.564Z,65.60
2023-04-21T04:16:30.052Z,65.60
2023-04-21T04:19:33.645Z,65.60
2023-04-21T04:22:36.971Z,65.70
2023-04-21T04:25:42.667Z,65.80
2023-04-21T04:28:45.922Z,65.60
2023-04-21T04:31:49.274Z,65.60
2023-04-21T04:34:52.644Z,65.50
2023-04-21T04:37:56.988Z,65.60
2023-04-21T04:41:02.245Z,65.80
2023-04-21T04:44:05.711Z,65.90
2023-04-21T04:47:09.146Z,65.40
2023-04-21T04:50:12.190Z,65.20
2023-04-21T04:53:15.382Z,65.30
2023-04-21T04:56:19.732Z,65.50
2023-04-21T04:59:22.682Z,65.30
2023-04-21T05:02:26.067Z,65.10
2023-04-21T05:05:29.284Z,65.10
2023-04-21T05:08:32.367Z,65.20
2023-04-21T05:11:36.953Z,64.80
2023-04-21T05:14:39.921Z,64.60
2023-04-21T05:17:43.115Z,64.60
2023-04-21T05:20:46.222Z,64.40
2023-04-21T05:23:49.231Z,64.30
2023-04-21T05:26:54.062Z,64.30
2023-04-21T05:29:57.242Z,64.10
2023-04-21T05:33:00.394Z,64.00
2023-04-21T05:36:03.714Z,63.70
2023-04-21T05:39:06.764Z,63.60
2023-04-21T05:42:12.513Z,63.30
2023-04-21T05:45:16.072Z,63.30
2023-04-21T05:48:19.246Z,62.90
2023-04-21T05:51:22.587Z,62.50
2023-04-21T05:54:25.686Z,62.60
2023-04-21T05:57:30.245Z,62.20
2023-04-21T06:00:33.304Z,61.70
2023-04-21T06:03:36.585Z,61.80
2023-04-21T06:06:40.262Z,61.00
2023-04-21T06:09:43.565Z,60.50
2023-04-21T06:12:47.966Z,59.60
2023-04-21T06:15:51.387Z,59.20
2023-04-21T06:18:55.898Z,58.60
2023-04-21T06:21:59.489Z,58.30
2023-04-21T06:25:02.706Z,57.60
2023-04-21T06:28:07.094Z,57.20
2023-04-21T06:31:15.700Z,56.50
2023-04-21T06:34:20.921Z,56.40
2023-04-21T06:37:24.110Z,56.20
2023-04-21T06:40:27.228Z,56.10
2023-04-21T06:43:31.916Z,55.50
2023-04-21T06:46:35.032Z,55.50
2023-04-21T06:49:38.248Z,55.10
2023-04-21T06:52:41.390Z,55.00
2023-04-21T06:55:44.616Z,54.70
2023-04-21T06:58:49.047Z,55.00
2023-04-21T07:01:52.468Z,54.60
2023-04-21T07:04:55.863Z,54.50
2023-04-21T07:08:00.014Z,54.50
2023-04-21T07:11:03.152Z,53.80
2023-04-21T07:14:07.853Z,54.00
2023-04-21T07:17:11.017Z,54.00
2023-04-21T07:20:14.725Z,53.70
2023-04-21T07:23:17.935Z,54.60
2023-04-21T07:26:22.251Z,53.90
2023-04-21T07:29:26.828Z,53.70
2023-04-21T07:32:29.919Z,53.30
2023-04-21T07:35:32.926Z,53.30
2023-04-21T07:38:36.003Z,52.70
2023-04-21T07:41:38.986Z,52.90
2023-04-21T07:44:43.428Z,52.40
2023-04-21T07:47:47.294Z,52.80
2023-04-21T07:50:51.413Z,52.80
2023-04-21T07:53:54.573Z,52.30
2023-04-21T07:56:57.614Z,52.20
2023-04-21T08:00:02.008Z,52.50
2023-04-21T08:03:05.223Z,52.10
2023-04-21T08:06:08.999Z,51.90
2023-04-21T08:09:12.379Z,51.50
2023-04-21T08:12:16.758Z,50.80
2023-04-21T08:15:21.299Z,50.70
2023-04-21T08:18:24.839Z,50.80
2023-04-21T08:21:30.794Z,50.50
2023-04-21T08:24:34.279Z,50.50
2023-04-21T08:27:41.875Z,50.40
2023-04-21T08:30:46.297Z,50.30
2023-04-21T08:34:00.598Z,50.90
2023-04-21T08:37:05.993Z,50.70
2023-04-21T08:40:09.970Z,50.00
2023-04-21T08:43:13.479Z,50.50
2023-04-21T08:46:18.166Z,49.60
2023-04-21T08:49:22.243Z,49.50
2023-04-21T08:52:26.698Z,50.30
2023-04-21T08:55:31.684Z,50.30
2023-04-21T08:58:35.088Z,49.70
2023-04-21T09:02:09.932Z,49.40
2023-04-21T09:05:24.329Z,49.20
2023-04-21T09:08:29.865Z,48.90
2023-04-21T09:11:34.621Z,49.20
2023-04-21T09:14:37.644Z,48.50
2023-04-21T09:17:42.012Z,48.60
2023-04-21T09:20:46.012Z,48.20
2023-04-21T09:23:50.479Z,48.60
2023-04-21T09:26:53.945Z,49.20
2023-04-21T09:30:03.742Z,49.00
2023-04-21T09:33:20.114Z,48.00
2023-04-21T09:36:31.964Z,48.50
2023-04-21T09:39:46.318Z,48.70
2023-04-21T09:42:56.225Z,47.10
2023-04-21T09:46:01.724Z,47.40
2023-04-21T09:49:06.689Z,47.70
2023-04-21T09:52:18.915Z,47.50
2023-04-21T09:55:27.174Z,47.70
2023-04-21T09:58:35.203Z,48.20
2023-04-21T10:01:39.175Z,47.50
2023-04-21T10:04:44.910Z,46.90
2023-04-21T10:07:48.723Z,47.60
2023-04-21T10:10:53.009Z,46.60
2023-04-21T10:13:56.208Z,46.20
2023-04-21T10:17:04.587Z,46.90
2023-04-21T10:20:11.316Z,45.20
2023-04-21T10:23:30.563Z,45.30
2023-04-21T10:26:37.179Z,45.30
2023-04-21T10:29:55.750Z,45.30
2023-04-21T10:33:06.777Z,44.20
2023-04-21T10:36:15.683Z,45.40
2023-04-21T10:39:29.116Z,44.40
2023-04-21T10:42:36.855Z,44.50
2023-04-21T10:45:40.012Z,44.90
2023-04-21T10:48:43.023Z,45.40
2023-04-21T10:52:08.094Z,45.30
2023-04-21T10:55:12.756Z,44.20
2023-04-21T10:58:17.170Z,44.10
2023-04-21T11:01:20.346Z,44.60
2023-04-21T11:04:24.690Z,44.40
2023-04-21T11:07:29.608Z,43.90
2023-04-21T11:10:43.348Z,44.60
2023-04-21T11:13:47.789Z,44.10
2023-04-21T11:16:51.106Z,44.00
2023-04-21T11:19:55.384Z,44.20
2023-04-21T11:22:59.659Z,44.40
2023-04-21T11:26:02.616Z,43.50
2023-04-21T11:29:07.386Z,43.40
2023-04-21T11:32:10.639Z,44.10
2023-04-21T11:35:13.826Z,44.80
2023-04-21T11:38:19.351Z,44.80
2023-04-21T11:41:23.235Z,44.40
2023-04-21T11:44:34.315Z,44.60
2023-04-21T11:47:40.106Z,44.30
2023-04-21T11:50:49.010Z,42.80
2023-04-21T11:53:53.821Z,42.90
2023-04-21T11:56:56.890Z,43.40
2023-04-21T12:00:00.496Z,43.20
2023-04-21T12:03:03.702Z,43.50
2023-04-21T12:06:07.476Z,43.40
2023-04-21T12:09:18.669Z,43.40
2023-04-21T12:12:23.860Z,42.10
2023-04-21T12:15:27.105Z,42.70
2023-04-21T12:18:32.769Z,43.00
2023-04-21T12:21:39.675Z,43.10
2023-04-21T12:24:44.662Z,42.70
2023-04-21T12:27:51.203Z,42.20
2023-04-21T12:30:55.879Z,42.80
2023-04-21T12:33:59.130Z,43.00
2023-04-21T12:37:02.251Z,43.30
2023-04-21T12:40:08.236Z,42.70
2023-04-21T12:43:11.270Z,43.20
2023-04-21T12:46:14.641Z,43.50
2023-04-21T12:49:18.392Z,43.80
2023-04-21T12:52:21.392Z,42.90
2023-04-21T12:55:25.979Z,42.60
2023-04-21T12:58:29.280Z,42.90
2023-04-21T13:01:32.846Z,42.50
2023-04-21T13:04:36.371Z,42.90
2023-04-21T13:07:39.472Z,43.00
2023-04-21T13:10:45.765Z,42.70
2023-04-21T13:13:49.021Z,42.40
2023-04-21T13:16:52.096Z,42.00
2023-04-21T13:19:55.162Z,41.90
2023-04-21T13:22:58.162Z,41.50
2023-04-21T13:26:02.636Z,41.80
2023-04-21T13:29:05.827Z,41.80
2023-04-21T13:32:09.234Z,42.10
2023-04-21T13:35:15.757Z,42.70
2023-04-21T13:38:19.272Z,42.10
2023-04-21T13:41:23.876Z,42.00
2023-04-21T13:44:27.353Z,42.70
2023-04-21T13:47:31.206Z,42.30
2023-04-21T13:50:34.304Z,42.10
2023-04-21T13:53:37.595Z,42.20
2023-04-21T13:56:42.074Z,42.60
2023-04-21T13:59:45.502Z,42.50
2023-04-21T14:02:49.375Z,42.60
2023-04-21T14:05:53.049Z,42.50
2023-04-21T14:08:56.259Z,41.90
2023-04-21T14:12:01.580Z,42.90
2023-04-21T14:15:04.962Z,42.10
2023-04-21T14:18:08.194Z,42.00
2023-04-21T14:21:11.379Z,42.00
2023-04-21T14:24:14.522Z,42.70
2023-04-21T14:27:20.339Z,42.80
2023-04-21T14:30:23.671Z,42.10
2023-04-21T14:33:26.708Z,42.30
2023-04-21T14:36:29.878Z,41.60
2023-04-21T14:39:34.651Z,42.10
2023-04-21T14:42:39.264Z,41.70
2023-04-21T14:45:43.666Z,41.60
2023-04-21T14:48:47.580Z,41.30
2023-04-21T14:51:51.881Z,41.40
2023-04-21T14:54:54.938Z,42.00
2023-04-21T14:57:59.527Z,41.30
2023-04-21T15:01:02.631Z,41.50
2023-04-21T15:04:06.404Z,41.50
2023-04-21T15:07:09.901Z,41.80
2023-04-21T15:10:13.812Z,41.50
2023-04-21T15:13:18.386Z,41.60
2023-04-21T15:16:21.586Z,41.80
2023-04-21T15:19:25.728Z,41.20
2023-04-21T15:22:29.068Z,41.10
2023-04-21T15:25:32.162Z,41.20
2023-04-21T15:28:36.742Z,41.50
2023-04-21T15:31:40.227Z,41.00
2023-04-21T15:34:43.617Z,41.40
2023-04-21T15:37:46.838Z,41.50
2023-04-21T15:41:00.664Z,41.10
2023-04-21T15:44:06.544Z,41.90
2023-04-21T15:47:09.592Z,41.70
2023-04-21T15:50:12.988Z,41.50
2023-04-21T15:53:17.898Z,41.60
2023-04-21T15:56:22.891Z,41.70
2023-04-21T15:59:27.493Z,42.50
2023-04-21T16:02:30.798Z,42.50
2023-04-21T16:05:34.181Z,42.40
2023-04-21T16:08:37.539Z,42.90
2023-04-21T16:11:40.664Z,42.30
2023-04-21T16:14:55.740Z,43.30
2023-04-21T16:18:06.377Z,42.50
2023-04-21T16:21:10.608Z,42.70
2023-04-21T16:24:13.848Z,42.60
2023-04-21T16:27:16.953Z,42.80
2023-04-21T16:30:21.568Z,43.00
2023-04-21T16:33:24.560Z,43.50
2023-04-21T16:36:29.544Z,43.30
2023-04-21T16:39:32.500Z,43.90
2023-04-21T16:42:35.999Z,43.50
2023-04-21T16:45:40.884Z,43.60
2023-04-21T16:48:44.101Z,44.10
2023-04-21T16:51:47.328Z,44.00
2023-04-21T16:54:50.553Z,43.80
2023-04-21T16:57:53.619Z,43.60
2023-04-21T17:00:58.494Z,43.80
2023-04-21T17:04:01.769Z,43.50
2023-04-21T17:07:05.155Z,43.50
2023-04-21T17:10:08.947Z,43.90
2023-04-21T17:13:11.932Z,44.30
2023-04-21T17:16:16.922Z,43.70
2023-04-21T17:19:20.059Z,43.80
2023-04-21T17:22:23.733Z,43.90
2023-04-21T17:25:26.930Z,44.00
2023-04-21T17:28:29.905Z,44.20
2023-04-21T17:31:34.630Z,44.00
2023-04-21T17:34:38.070Z,43.90
2023-04-21T17:37:41.628Z,44.40
2023-04-21T17:40:44.937Z,44.40
2023-04-21T17:43:47.959Z,44.30
2023-04-21T17:46:54.797Z,44.60
2023-04-21T17:49:57.802Z,44.30
2023-04-21T17:53:00.862Z,44.30
2023-04-21T17:56:04.272Z,44.50
2023-04-21T17:59:07.358Z,45.10
2023-04-21T18:02:12.161Z,44.80
2023-04-21T18:05:15.794Z,44.70
2023-04-21T18:08:19.077Z,44.70
2023-04-21T18:11:22.550Z,44.80
2023-04-21T18:14:25.668Z,45.10
2023-04-21T18:17:30.107Z,45.70
2023-04-21T18:20:33.211Z,45.40
2023-04-21T18:23:36.351Z,45.70
2023-04-21T18:26:39.451Z,45.50
2023-04-21T18:29:42.621Z,45.60
2023-04-21T18:32:47.131Z,45.30
2023-04-21T18:35:50.672Z,45.50
2023-04-21T18:38:53.631Z,45.50
2023-04-21T18:41:56.774Z,45.40
2023-04-21T18:45:00.891Z,45.20
2023-04-21T18:48:08.620Z,45.70
2023-04-21T18:51:11.754Z,45.40
2023-04-21T18:54:15.115Z,45.50
2023-04-21T18:57:18.778Z,45.70
2023-04-21T19:00:21.915Z,45.80
2023-04-21T19:03:26.864Z,45.60
2023-04-21T19:06:30.208Z,45.40
2023-04-21T19:09:33.660Z,45.30
2023-04-21T19:12:36.908Z,45.90
2023-04-21T19:15:40.374Z,45.50
2023-04-21T19:18:44.746Z,45.60
2023-04-21T19:21:47.772Z,45.40
2023-04-21T19:24:51.066Z,45.50
2023-04-21T19:27:54.105Z,45.70
2023-04-21T19:30:57.099Z,45.50
2023-04-21T19:34:01.499Z,45.70
2023-04-21T19:37:04.501Z,45.70
2023-04-21T19:40:09.337Z,45.90
2023-04-21T19:43:12.765Z,46.10
2023-04-21T19:46:15.932Z,46.30
2023-04-21T19:49:22.627Z,46.40
2023-04-21T19:52:25.871Z,46.60
2023-04-21T19:55:29.239Z,47.20
2023-04-21T19:58:40.365Z,47.20
2023-04-21T20:01:44.264Z,47.00
2023-04-21T20:04:50.863Z,47.50
2023-04-21T20:07:54.803Z,47.60
2023-04-21T20:10:58.017Z,47.80
2023-04-21T20:14:01.201Z,47.60
2023-04-21T20:17:04.446Z,47.60
2023-04-21T20:20:10.804Z,48.00
2023-04-21T20:23:13.909Z,47.80
2023-04-21T20:26:17.624Z,47.90
2023-04-21T20:29:24.140Z,48.10
2023-04-21T20:32:27.344Z,48.00
2023-04-21T20:35:33.459Z,48.20
2023-04-21T20:38:38.362Z,48.40
2023-04-21T20:41:43.544Z,48.30
2023-04-21T20:44:47.288Z,48.90
2023-04-21T20:47:50.449Z,48.60
2023-04-21T20:50:55.689Z,49.00
2023-04-21T20:53:58.749Z,49.20
2023-04-21T20:57:02.396Z,49.30
2023-04-21T21:00:07.066Z,49.20
2023-04-21T21:03:11.896Z,49.70
2023-04-21T21:06:17.000Z,49.70
2023-04-21T21:09:20.618Z,50.00
2023-04-21T21:12:23.695Z,50.00
2023-04-21T21:15:27.063Z,49.90
2023-04-21T21:18:34.467Z,49.80
2023-04-21T21:21:39.508Z,50.20
2023-04-21T21:24:42.965Z,49.90
2023-04-21T21:27:46.362Z,49.90
2023-04-21T21:30:49.501Z,50.00
2023-04-21T21:33:52.704Z,50.40
2023-04-21T21:36:57.308Z,50.50
2023-04-21T21:40:00.582Z,50.80
2023-04-21T21:43:03.566Z,51.20
2023-04-21T21:46:07.385Z,51.30
2023-04-21T21:49:11.761Z,51.40
2023-04-21T21:52:16.496Z,51.60
2023-04-21T21:55:19.555Z,51.80
2023-04-21T21:58:22.574Z,51.80
2023-04-21T22:01:25.754Z,51.90
2023-04-21T22:04:28.952Z,52.00
2023-04-21T22:07:35.357Z,51.80
2023-04-21T22:10:38.480Z,52.00
2023-04-21T22:13:42.116Z,51.70
2023-04-21T22:16:46.044Z,51.80
2023-04-21T22:19:49.679Z,51.90
2023-04-21T22:22:54.146Z,52.20
2023-04-21T22:25:57.111Z,52.20
2023-04-21T22:29:00.318Z,52.10
2023-04-21T22:32:03.688Z,52.40
2023-04-21T22:35:07.197Z,52.60
2023-04-21T22:38:12.071Z,52.70
2023-04-21T22:41:15.282Z,52.80
2023-04-21T22:44:20.737Z,52.90
2023-04-21T22:47:24.268Z,52.80
2023-04-21T22:50:27.551Z,52.90
2023-04-21T22:53:32.062Z,53.10
2023-04-21T22:56:35.138Z,53.20
2023-04-21T22:59:38.561Z,53.40
2023-04-21T23:02:42.020Z,53.50
2023-04-21T23:05:45.206Z,53.50
2023-04-21T23:08:49.822Z,53.50
2023-04-21T23:11:52.975Z,53.70
2023-04-21T23:14:56.083Z,53.90
2023-04-21T23:17:59.333Z,53.90
2023-04-21T23:21:02.363Z,54.00
2023-04-21T23:24:07.183Z,53.90
2023-04-21T23:27:10.230Z,53.80
2023-04-21T23:30:14.183Z,53.80
2023-04-21T23:33:17.315Z,53.70
2023-04-21T23:36:20.487Z,53.90
2023-04-21T23:39:25.000Z,54.30
2023-04-21T23:42:28.115Z,54.00
2023-04-21T23:45:31.526Z,54.10
2023-04-21T23:48:34.881Z,54.20
2023-04-21T23:51:38.110Z,54.30
2023-04-21T23:54:42.675Z,54.30
2023-04-21T23:57:46.770Z,54.20
